Time;durP1;ratioP1;P1;durP2;ratioP2;P2;SDS_P1;SDS_P2;PMS_P1;PMS_P2;Temp;Humidity;BMP_temperature;BMP_pressure;BME280_temperature;BME280_humidity;BME280_pressure;Samples;Min_cycle;Max_cycle;Signal;HPM_P1;HPM_P2
2022/08/10 00:01:04;;;;;;;3.85;1.70;;;;;;;19.07;60.67;102622.34;5008015;28;20041;-60
2022/08/10 00:03:29;;;;;;;3.47;1.75;;;;;;;19.10;60.91;102626.56;5008209;28;20533;-60
2022/08/10 00:05:55;;;;;;;1.85;1.48;;;;;;;19.01;61.08;102616.84;5007673;28;20030;-60
2022/08/10 00:08:23;;;;;;;2.75;1.65;;;;;;;19.00;61.26;102629.47;5009041;28;20033;-60
2022/08/10 00:10:49;;;;;;;2.33;1.65;;;;;;;18.98;61.60;102622.59;5004028;28;20036;-60
2022/08/10 00:13:15;;;;;;;4.95;1.88;;;;;;;18.93;61.55;102622.31;5004644;28;20432;-59
2022/08/10 00:15:40;;;;;;;3.70;1.80;;;;;;;18.87;61.89;102611.28;5011168;28;20664;-60
2022/08/10 00:18:05;;;;;;;3.75;1.90;;;;;;;18.88;61.63;102623.72;5006758;28;20490;-60
2022/08/10 00:20:30;;;;;;;3.03;1.77;;;;;;;18.86;61.54;102614.97;5007188;28;20104;-60
2022/08/10 00:22:56;;;;;;;2.70;2.13;;;;;;;18.81;61.66;102614.69;5007071;28;20038;-60
2022/08/10 00:25:21;;;;;;;2.38;1.88;;;;;;;18.80;61.69;102617.56;5003171;28;20026;-60
2022/08/10 00:27:46;;;;;;;2.65;1.95;;;;;;;18.74;62.17;102616.41;5003055;28;20105;-60
2022/08/10 00:30:12;;;;;;;7.00;2.10;;;;;;;18.69;62.49;102618.81;5003778;28;20053;-59
2022/08/10 00:32:37;;;;;;;3.30;1.95;;;;;;;18.65;62.17;102614.81;5002565;28;21284;-60
2022/08/10 00:35:03;;;;;;;3.20;1.80;;;;;;;18.58;62.26;102616.53;5007616;28;20025;-60
2022/08/10 00:37:28;;;;;;;4.95;2.00;;;;;;;18.60;62.57;102619.03;5008522;28;20037;-60
2022/08/10 00:39:53;;;;;;;4.13;2.15;;;;;;;18.55;62.32;102611.50;5003964;28;20029;-59
2022/08/10 00:42:19;;;;;;;3.78;2.10;;;;;;;18.48;62.81;102605.16;5006166;28;20528;-59
2022/08/10 00:44:47;;;;;;;3.05;2.20;;;;;;;18.40;62.87;102594.47;5008767;28;20026;-60
2022/08/10 00:47:13;;;;;;;3.65;2.20;;;;;;;18.44;63.18;102607.38;5007334;28;21494;-60
2022/08/10 00:49:39;;;;;;;2.58;2.17;;;;;;;18.48;63.24;102611.38;5013825;28;20554;-59
2022/08/10 00:52:05;;;;;;;3.15;2.10;;;;;;;18.33;63.32;102593.50;5006083;28;20603;-59
2022/08/10 00:54:33;;;;;;;3.90;2.33;;;;;;;18.35;63.21;102605.75;5002795;28;20110;-59
2022/08/10 00:56:59;;;;;;;2.83;2.20;;;;;;;18.33;63.12;102601.56;5009269;28;20033;-60
2022/08/10 00:59:24;;;;;;;5.03;2.28;;;;;;;18.32;63.28;102603.44;5002063;28;20027;-59
2022/08/10 01:01:49;;;;;;;3.05;2.10;;;;;;;18.29;63.71;102605.66;5007373;28;20851;-59
2022/08/10 01:04:15;;;;;;;2.47;2.25;;;;;;;18.18;63.81;102596.13;5008119;28;20030;-59
2022/08/10 01:07:04;;;;;;;4.45;2.28;;;;;;;18.29;64.00;102611.88;5005809;28;20853;-60
2022/08/10 01:09:48;;;;;;;4.97;2.10;;;;;;;18.18;64.04;102599.63;5006142;28;20108;-59
2022/08/10 01:12:41;;;;;;;2.60;2.30;;;;;;;18.21;63.74;102606.50;5010785;28;20021;-59
2022/08/10 01:15:23;;;;;;;4.35;2.30;;;;;;;18.02;64.17;102591.69;5009587;28;20029;-59
2022/08/10 01:17:57;;;;;;;2.78;2.50;;;;;;;18.04;64.00;102607.63;5008223;28;20041;-60
2022/08/10 01:20:43;;;;;;;6.32;2.70;;;;;;;18.04;63.87;102602.25;5010692;28;20140;-59
2022/08/10 01:23:20;;;;;;;3.75;2.85;;;;;;;18.00;64.04;102603.63;5007035;28;20018;-60
2022/08/10 01:26:11;;;;;;;3.28;2.50;;;;;;;18.06;64.06;102600.22;5005262;28;20030;-59
2022/08/10 01:29:12;;;;;;;4.85;2.90;;;;;;;18.05;64.43;102596.72;5007900;28;20028;-59
2022/08/10 01:31:43;;;;;;;3.83;3.13;;;;;;;17.98;63.95;102587.69;5008384;28;20026;-59
2022/08/10 01:34:43;;;;;;;3.92;3.05;;;;;;;18.03;64.06;102596.06;5008371;28;20021;-59
2022/08/10 01:37:13;;;;;;;3.85;2.90;;;;;;;17.98;64.32;102592.22;5005460;28;20025;-60
2022/08/10 01:39:43;;;;;;;4.47;2.97;;;;;;;17.91;64.15;102592.91;5008858;28;20494;-59
2022/08/10 01:42:15;;;;;;;5.00;3.10;;;;;;;17.95;64.09;102588.03;5006364;28;20034;-59
2022/08/10 01:45:07;;;;;;;5.68;3.00;;;;;;;18.01;64.39;102587.31;4998612;28;20080;-59
2022/08/10 01:50:29;;;;;;;4.28;2.95;;;;;;;17.91;64.29;102597.44;5010414;28;20107;-59
2022/08/10 01:53:04;;;;;;;5.88;3.40;;;;;;;17.90;64.37;102587.72;5005948;28;20465;-59
2022/08/10 01:55:31;;;;;;;3.95;3.58;;;;;;;17.89;64.20;102586.03;5008431;28;20025;-59
2022/08/10 01:58:00;;;;;;;4.38;3.45;;;;;;;17.86;64.84;102594.44;5006567;28;20486;-59
2022/08/10 02:00:28;;;;;;;5.28;3.75;;;;;;;17.72;64.54;102574.53;5008229;28;20108;-59
2022/08/10 02:02:55;;;;;;;5.40;3.50;;;;;;;17.79;64.60;102585.44;5005805;28;20034;-60
2022/08/10 02:05:25;;;;;;;7.05;3.90;;;;;;;17.72;65.29;102576.41;5007680;28;20021;-60
2022/08/10 02:07:51;;;;;;;5.72;3.67;;;;;;;17.70;64.92;102586.47;5011348;28;20030;-60
2022/08/10 02:10:19;;;;;;;4.45;4.03;;;;;;;17.64;65.59;102585.31;5010618;28;20021;-59
2022/08/10 02:12:45;;;;;;;4.18;3.78;;;;;;;17.62;65.47;102587.28;5006303;28;20045;-59
2022/08/10 02:15:18;;;;;;;6.32;3.67;;;;;;;17.55;65.40;102586.31;5010304;28;20033;-60
2022/08/10 02:17:50;;;;;;;4.50;3.80;;;;;;;17.53;66.17;102588.34;5005257;28;20030;-59
2022/08/10 02:20:19;;;;;;;5.00;4.13;;;;;;;17.47;65.89;102583.69;5010869;28;20053;-59
2022/08/10 02:22:50;;;;;;;6.95;4.22;;;;;;;17.46;65.82;102580.16;5009885;28;20028;-59
2022/08/10 02:25:18;;;;;;;4.68;4.00;;;;;;;17.29;65.89;102587.41;5006181;28;20401;-59
2022/08/10 02:27:45;;;;;;;6.70;4.05;;;;;;;17.19;66.37;102585.94;5005001;28;20033;-59
2022/08/10 02:30:11;;;;;;;4.72;4.07;;;;;;;17.07;66.14;102585.47;5015850;28;20032;-59
2022/08/10 02:32:37;;;;;;;5.57;4.00;;;;;;;17.02;66.43;102577.91;5005198;28;20022;-59
2022/08/10 02:35:06;;;;;;;4.70;4.20;;;;;;;17.09;67.15;102582.63;5005623;28;20026;-60
2022/08/10 02:37:33;;;;;;;;;;;;;;;17.30;66.56;102580.19;5007128;28;20030;-59
2022/08/10 02:39:58;;;;;;;6.30;4.47;;;;;;;17.09;66.66;102579.94;5012265;28;19913;-59
2022/08/10 02:42:28;;;;;;;6.82;4.38;;;;;;;17.01;66.79;102586.13;5012712;28;20032;-59
2022/08/10 02:45:06;;;;;;;8.20;4.20;;;;;;;17.07;67.18;102584.63;5010374;28;20033;-60
2022/08/10 02:47:38;;;;;;;10.18;4.05;;;;;;;17.06;67.42;102586.50;5005802;28;20034;-59
2022/08/10 02:50:42;;;;;;;4.35;3.90;;;;;;;17.06;67.34;102586.50;5003078;28;20513;-59
2022/08/10 02:53:16;;;;;;;6.78;3.90;;;;;;;17.00;67.37;102582.63;5005019;28;20050;-59
2022/08/10 02:55:48;;;;;;;5.50;4.13;;;;;;;17.01;67.66;102578.09;5009087;28;20433;-59
2022/08/10 02:58:20;;;;;;;6.00;4.05;;;;;;;16.97;67.77;102587.47;5011320;28;20029;-59
2022/08/10 03:00:48;;;;;;;6.32;4.00;;;;;;;17.01;67.57;102586.13;5015703;28;20030;-59
2022/08/10 03:03:20;;;;;;;4.60;3.92;;;;;;;17.05;67.61;102568.66;5008922;28;20344;-60
2022/08/10 03:05:49;;;;;;;4.25;3.85;;;;;;;17.02;67.44;102569.84;5003452;28;20029;-59
2022/08/10 03:08:20;;;;;;;3.88;3.58;;;;;;;17.02;68.00;102560.97;5002329;28;20113;-59
2022/08/10 03:10:48;;;;;;;6.20;4.03;;;;;;;17.04;67.73;102565.16;5002641;28;20026;-59
2022/08/10 03:13:13;;;;;;;6.10;3.72;;;;;;;16.99;67.81;102561.31;5007812;28;20026;-60
2022/08/10 03:15:39;;;;;;;4.57;3.88;;;;;;;16.92;68.00;102558.47;5009075;28;20080;-62
2022/08/10 03:18:06;;;;;;;5.88;4.00;;;;;;;16.82;67.85;102559.69;5004090;28;21008;-62
2022/08/10 03:20:36;;;;;;;4.57;3.90;;;;;;;16.72;68.30;102563.34;5012471;28;20032;-62
2022/08/10 03:23:04;;;;;;;5.65;3.95;;;;;;;16.73;67.98;102559.66;4998592;28;20084;-62
2022/08/10 03:25:30;;;;;;;4.55;3.70;;;;;;;16.73;68.28;102561.50;5004223;28;20022;-62
2022/08/10 03:27:58;;;;;;;4.15;3.75;;;;;;;16.59;68.73;102551.44;5010444;28;20466;-62
2022/08/10 03:30:24;;;;;;;6.40;4.30;;;;;;;16.66;68.48;102549.78;5007877;28;20022;-62
2022/08/10 03:32:51;;;;;;;9.05;4.22;;;;;;;16.58;68.82;102549.75;5016160;28;20053;-62
2022/08/10 03:35:17;;;;;;;5.28;4.10;;;;;;;16.56;68.77;102547.25;5006919;28;20482;-62
2022/08/10 03:37:42;;;;;;;5.10;3.90;;;;;;;16.53;68.92;102546.75;5007702;28;20068;-62
2022/08/10 03:40:08;;;;;;;5.20;4.05;;;;;;;16.50;69.51;102547.09;5008716;28;20029;-62
2022/08/10 03:42:37;;;;;;;17.10;4.30;;;;;;;16.41;69.41;102554.28;5007445;28;20055;-59
2022/08/10 03:45:05;;;;;;;6.03;4.07;;;;;;;16.41;69.24;102547.06;5007589;28;20025;-59
2022/08/10 03:47:33;;;;;;;7.68;4.43;;;;;;;16.30;69.18;102552.78;5009478;28;20052;-59
2022/08/10 03:50:00;;;;;;;4.50;4.10;;;;;;;16.28;69.22;102557.47;5006982;28;20045;-59
2022/08/10 03:52:26;;;;;;;6.93;4.07;;;;;;;16.18;69.74;102563.97;5006429;28;20584;-59
2022/08/10 03:54:52;;;;;;;5.63;3.83;;;;;;;16.09;69.94;102565.81;5010957;28;20397;-59
2022/08/10 03:57:19;;;;;;;7.15;4.07;;;;;;;16.04;70.15;102560.94;5007377;28;20029;-60
2022/08/10 03:59:44;;;;;;;4.90;3.90;;;;;;;15.99;70.28;102562.44;5005633;28;20038;-59
2022/08/10 04:02:10;;;;;;;4.40;3.95;;;;;;;16.07;70.35;102565.97;5010220;28;20028;-59
2022/08/10 04:04:36;;;;;;;6.30;4.13;;;;;;;16.11;70.45;102561.94;5010241;28;20030;-60
2022/08/10 04:07:02;;;;;;;6.72;3.90;;;;;;;16.07;70.14;102557.09;5007673;28;20025;-59
2022/08/10 04:09:30;;;;;;;5.32;3.92;;;;;;;15.99;70.76;102552.56;5008785;28;20036;-60
2022/08/10 04:11:55;;;;;;;4.90;4.00;;;;;;;16.00;70.58;102556.09;5007696;28;20030;-60
2022/08/10 04:14:20;;;;;;;7.13;4.07;;;;;;;15.95;70.59;102561.09;5011701;28;20109;-60
2022/08/10 04:16:46;;;;;;;6.05;4.20;;;;;;;15.91;70.72;102563.28;5008468;28;20017;-59
2022/08/10 04:19:13;;;;;;;6.97;4.20;;;;;;;15.99;71.26;102562.44;5007295;28;20040;-60
2022/08/10 04:21:44;;;;;;;5.18;4.30;;;;;;;16.01;71.42;102563.13;5008075;28;20045;-59
2022/08/10 04:24:16;;;;;;;6.00;4.53;;;;;;;16.01;71.35;102555.91;5008430;28;20030;-60
2022/08/10 04:26:42;;;;;;;5.10;4.32;;;;;;;16.07;71.39;102554.41;5007121;28;20037;-59
2022/08/10 04:29:07;;;;;;;4.70;4.10;;;;;;;16.08;71.42;102559.59;5006662;28;20512;-59
2022/08/10 04:31:34;;;;;;;5.70;4.32;;;;;;;16.10;71.69;102565.63;5009301;28;20093;-59
2022/08/10 04:34:01;;;;;;;7.25;4.60;;;;;;;16.00;71.62;102561.44;5005427;28;20025;-59
2022/08/10 04:36:27;;;;;;;5.13;4.40;;;;;;;16.10;72.09;102562.97;5009343;28;20416;-59
2022/08/10 04:38:54;;;;;;;5.55;4.38;;;;;;;16.12;72.04;102560.09;5005876;28;20036;-59
2022/08/10 04:41:19;;;;;;;8.02;4.50;;;;;;;16.10;71.91;102559.44;5005182;28;20029;-60
2022/08/10 04:43:45;;;;;;;5.93;4.00;;;;;;;16.11;71.96;102566.47;5004415;28;20034;-59
2022/08/10 04:46:10;;;;;;;5.07;4.38;;;;;;;16.05;72.15;102561.78;5015369;28;20021;-59
2022/08/10 04:48:36;;;;;;;4.97;4.18;;;;;;;16.08;71.86;102558.78;5006450;28;20053;-59
2022/08/10 04:51:02;;;;;;;6.05;4.32;;;;;;;16.15;72.08;102559.78;5009895;28;20025;-59
2022/08/10 04:53:27;;;;;;;6.43;4.15;;;;;;;16.17;71.80;102556.94;5008798;28;20080;-59
2022/08/10 04:55:52;;;;;;;5.75;4.38;;;;;;;16.19;72.30;102549.56;5012384;28;20014;-59
2022/08/10 04:58:17;;;;;;;6.82;4.70;;;;;;;16.20;72.55;102548.59;5011019;28;20021;-59
2022/08/10 05:00:43;;;;;;;5.63;4.32;;;;;;;16.22;72.38;102555.47;5017117;28;20029;-59
2022/08/10 05:03:08;;;;;;;5.07;4.57;;;;;;;16.27;72.47;102555.78;5014709;28;20049;-59
2022/08/10 05:05:33;;;;;;;6.78;4.60;;;;;;;16.36;72.52;102552.09;5014243;28;20029;-59
2022/08/10 05:07:58;;;;;;;5.35;4.57;;;;;;;16.44;72.74;102553.94;5011424;28;20179;-59
2022/08/10 05:10:24;;;;;;;6.28;5.10;;;;;;;16.54;72.74;102559.16;5009925;28;20061;-59
2022/08/10 05:12:49;;;;;;;5.50;4.93;;;;;;;16.58;72.99;102550.59;5010891;28;20030;-59
2022/08/10 05:15:17;;;;;;;6.72;5.00;;;;;;;16.73;73.25;102558.81;5007293;28;20077;-59
2022/08/10 05:17:42;;;;;;;6.13;5.18;;;;;;;16.80;73.16;102554.47;5005465;28;20028;-59
2022/08/10 05:20:10;;;;;;;6.25;5.25;;;;;;;16.88;72.75;102564.34;5013029;28;20017;-59
2022/08/10 05:22:40;;;;;;;5.97;4.93;;;;;;;16.98;72.99;102562.31;5004088;28;20029;-59
2022/08/10 05:25:09;;;;;;;6.75;5.10;;;;;;;17.06;72.75;102565.00;5009249;28;20026;-59
2022/08/10 05:27:34;;;;;;;8.48;5.50;;;;;;;17.12;72.71;102563.47;5009457;28;20505;-59
2022/08/10 05:30:00;;;;;;;9.68;5.45;;;;;;;17.20;72.50;102566.13;5011734;28;20057;-59
2022/08/10 05:32:25;;;;;;;10.15;6.00;;;;;;;17.29;72.84;102568.63;5012629;28;20026;-59
2022/08/10 05:34:50;;;;;;;8.23;6.07;;;;;;;17.30;72.89;102567.59;5010755;28;20544;-59
2022/08/10 05:37:16;;;;;;;7.32;6.25;;;;;;;17.38;72.82;102574.00;5007821;28;20084;-60
2022/08/10 05:39:42;;;;;;;6.20;5.55;;;;;;;17.50;72.66;102578.78;5009172;28;20033;-59
2022/08/10 05:42:07;;;;;;;7.55;6.75;;;;;;;17.59;72.95;102580.44;5008855;28;20030;-59
2022/08/10 05:44:33;;;;;;;8.32;6.43;;;;;;;17.70;72.82;102581.09;5012917;28;20516;-59
2022/08/10 05:46:58;;;;;;;8.68;6.03;;;;;;;17.72;72.67;102579.91;5008041;28;20444;-59
2022/08/10 05:49:24;;;;;;;8.55;5.82;;;;;;;17.81;72.21;102578.03;5010417;28;20041;-59
2022/08/10 05:51:50;;;;;;;8.68;6.05;;;;;;;17.84;72.44;102577.66;5008203;28;20025;-59
2022/08/10 05:54:15;;;;;;;7.90;6.30;;;;;;;17.95;71.99;102577.28;5007696;28;20037;-59
2022/08/10 05:56:43;;;;;;;9.63;6.20;;;;;;;18.00;71.90;102579.44;5005187;28;20029;-59
2022/08/10 05:59:11;;;;;;;10.05;6.00;;;;;;;18.08;71.75;102585.59;5011732;28;20021;-59
2022/08/10 06:01:41;;;;;;;7.57;5.95;;;;;;;18.04;71.64;102580.75;5003748;28;20030;-60
2022/08/10 06:04:08;;;;;;;7.95;6.20;;;;;;;18.13;71.97;102585.06;5009397;28;20117;-62
2022/08/10 06:06:35;;;;;;;6.95;6.00;;;;;;;18.18;71.44;102583.50;5013402;28;20592;-62
2022/08/10 06:09:01;;;;;;;10.02;6.43;;;;;;;18.17;71.19;102587.22;5015144;28;20030;-62
2022/08/10 06:11:29;;;;;;;7.20;5.88;;;;;;;18.18;71.51;102582.66;5006177;28;20053;-62
2022/08/10 06:16:42;;;;;;;9.40;6.40;;;;;;;18.27;71.22;102581.63;5010925;28;20604;-59
2022/08/10 06:19:10;;;;;;;10.02;5.80;;;;;;;18.33;71.21;102577.38;5012610;28;20025;-59
2022/08/10 06:21:36;;;;;;;8.68;7.03;;;;;;;18.38;70.93;102577.66;5007310;28;20116;-60
2022/08/10 06:24:02;;;;;;;9.20;5.78;;;;;;;18.41;70.91;102580.81;5007388;28;20049;-59
2022/08/10 06:26:27;;;;;;;9.82;6.00;;;;;;;18.46;70.66;102574.91;5009285;28;20033;-60
2022/08/10 06:28:57;;;;;;;7.68;6.30;;;;;;;18.55;70.59;102579.22;5009081;28;20030;-60
2022/08/10 06:31:24;;;;;;;7.72;6.00;;;;;;;18.60;70.42;102578.69;5002454;28;20030;-60
2022/08/10 06:33:51;;;;;;;8.85;6.63;;;;;;;18.63;70.43;102573.78;5005107;28;20037;-59
2022/08/10 06:36:17;;;;;;;6.63;5.53;;;;;;;18.64;70.18;102571.94;5007843;28;20018;-60
2022/08/10 06:38:44;;;;;;;10.75;5.78;;;;;;;18.65;70.07;102584.38;5003494;28;20041;-59
2022/08/10 06:41:19;;;;;;;9.45;6.03;;;;;;;18.70;69.76;102590.03;5004361;28;20025;-59
2022/08/10 06:43:49;;;;;;;9.25;6.07;;;;;;;18.77;70.08;102586.44;4999982;28;20034;-60
2022/08/10 06:46:17;;;;;;;9.43;6.03;;;;;;;18.84;70.01;102584.72;4999287;28;20999;-59
2022/08/10 06:48:49;;;;;;;9.02;5.88;;;;;;;18.94;69.52;102579.06;5002743;28;20875;-60
2022/08/10 06:51:20;;;;;;;6.70;5.40;;;;;;;19.00;69.56;102582.88;5002230;28;20109;-59
2022/08/10 06:53:48;;;;;;;8.82;6.25;;;;;;;19.10;69.30;102583.47;5012528;28;20025;-60
2022/08/10 06:56:17;;;;;;;7.82;6.38;;;;;;;19.18;69.22;102586.06;5010108;28;20437;-59
2022/08/10 06:58:51;;;;;;;8.55;5.72;;;;;;;19.25;69.28;102586.16;5002538;28;20049;-60
2022/08/10 07:01:20;;;;;;;7.53;5.93;;;;;;;19.33;68.81;102581.50;5008726;28;20516;-60
2022/08/10 07:03:52;;;;;;;7.15;5.65;;;;;;;19.42;68.10;102583.09;5007317;28;20053;-60
2022/08/10 07:06:19;;;;;;;6.63;5.18;;;;;;;19.48;67.72;102589.59;5010869;28;20030;-60
2022/08/10 07:08:47;;;;;;;6.22;5.20;;;;;;;19.60;67.94;102587.28;5001581;28;20025;-60
2022/08/10 07:11:14;;;;;;;10.63;5.57;;;;;;;19.64;67.67;102583.19;5007276;28;20600;-60
2022/08/10 07:13:41;;;;;;;9.40;5.53;;;;;;;19.68;67.06;102584.50;5005275;28;20021;-59
2022/08/10 07:16:10;;;;;;;7.55;5.15;;;;;;;19.72;66.91;102593.88;5007744;28;20108;-59
2022/08/10 07:18:36;;;;;;;6.15;4.72;;;;;;;19.79;66.68;102594.78;5005665;28;20032;-59
2022/08/10 07:21:04;;;;;;;12.20;5.32;;;;;;;19.90;66.54;102588.06;4997389;28;20104;-59
2022/08/10 07:23:31;;;;;;;7.32;4.90;;;;;;;19.98;66.84;102594.19;5007773;28;20017;-60
2022/08/10 07:25:59;;;;;;;11.23;5.22;;;;;;;20.05;66.51;102597.81;5002932;28;20034;-60
2022/08/10 07:28:25;;;;;;;8.85;5.15;;;;;;;20.11;65.96;102585.41;5004897;28;20022;-60
2022/08/10 07:30:52;;;;;;;9.30;5.05;;;;;;;20.11;65.03;102582.72;5002491;28;20493;-59
2022/08/10 07:33:19;;;;;;;6.57;4.82;;;;;;;20.14;64.76;102585.03;5006975;28;20029;-60
2022/08/10 07:35:46;;;;;;;6.72;4.93;;;;;;;20.25;64.95;102589.09;5008435;28;20088;-59
2022/08/10 07:38:18;;;;;;;7.03;4.40;;;;;;;20.32;64.71;102587.28;5009964;28;20018;-59
2022/08/10 07:40:46;;;;;;;7.20;4.30;;;;;;;20.35;64.15;102592.31;5003680;28;20034;-58
2022/08/10 07:43:13;;;;;;;7.05;4.38;;;;;;;20.44;63.95;102591.16;5009105;28;20026;-59
2022/08/10 07:45:39;;;;;;;7.47;4.28;;;;;;;20.51;63.76;102588.53;5004787;28;20045;-59
2022/08/10 07:48:10;;;;;;;8.38;4.63;;;;;;;20.53;63.40;102581.94;5007496;28;20026;-59
2022/08/10 07:50:38;;;;;;;9.20;4.35;;;;;;;20.63;63.06;102590.53;5008544;28;20080;-59
2022/08/10 07:53:09;;;;;;;6.10;4.18;;;;;;;20.72;63.35;102591.22;5003913;28;20025;-59
2022/08/10 07:55:36;;;;;;;7.65;4.10;;;;;;;20.73;62.88;102585.63;5003447;28;20053;-59
2022/08/10 07:58:03;;;;;;;7.55;3.97;;;;;;;20.81;62.96;102594.59;4998448;28;20478;-59
2022/08/10 08:00:30;;;;;;;7.25;3.92;;;;;;;20.90;62.84;102588.88;4996157;28;20026;-59
2022/08/10 08:02:58;;;;;;;9.00;4.10;;;;;;;20.98;62.53;102593.28;4997055;28;20088;-59
2022/08/10 08:05:25;;;;;;;10.10;4.40;;;;;;;21.04;62.19;102589.78;5000996;28;20556;-59
2022/08/10 08:07:52;;;;;;;5.60;3.80;;;;;;;21.07;62.22;102594.78;5003657;28;20503;-59
2022/08/10 08:10:20;;;;;;;5.05;3.83;;;;;;;21.17;61.94;102589.91;5006446;28;20030;-59
2022/08/10 08:12:46;;;;;;;6.45;3.80;;;;;;;21.23;61.43;102590.97;5007152;28;20113;-59
2022/08/10 08:15:15;;;;;;;8.20;3.90;;;;;;;21.32;61.08;102590.63;5001199;28;20101;-60
2022/08/10 08:17:41;;;;;;;7.32;3.40;;;;;;;21.40;60.87;102594.22;5006505;28;20030;-60
2022/08/10 08:20:08;;;;;;;7.57;3.28;;;;;;;21.49;60.46;102595.72;5011088;28;20064;-59
2022/08/10 08:22:35;;;;;;;6.00;3.28;;;;;;;21.52;60.21;102588.03;5017607;28;20025;-59
2022/08/10 08:25:02;;;;;;;7.57;3.00;;;;;;;21.62;59.81;102590.38;5014781;28;20044;-59
2022/08/10 08:27:30;;;;;;;5.43;3.13;;;;;;;21.69;60.00;102593.13;5018874;28;20052;-59
2022/08/10 08:29:56;;;;;;;6.75;3.20;;;;;;;21.75;59.87;102585.03;5017618;28;20049;-59
2022/08/10 08:32:24;;;;;;;4.57;3.08;;;;;;;21.86;59.66;102592.56;5006671;28;20036;-59
2022/08/10 08:34:55;;;;;;;6.88;3.53;;;;;;;21.92;59.31;102599.00;5012607;28;20037;-60
2022/08/10 08:37:22;;;;;;;7.05;3.25;;;;;;;22.00;58.85;102590.75;5003364;28;20096;-59
2022/08/10 08:39:48;;;;;;;7.97;3.35;;;;;;;22.07;57.97;102588.06;5003903;28;20584;-59
2022/08/10 08:42:50;;;;;;;5.45;3.15;;;;;;;22.20;57.40;102582.69;4999335;28;20101;-59
2022/08/10 08:45:44;;;;;;;5.20;3.15;;;;;;;22.32;57.00;102586.47;4998405;28;20021;-59
2022/08/10 08:48:12;;;;;;;7.88;3.30;;;;;;;22.43;56.86;102585.84;5010841;28;20026;-59
2022/08/10 08:50:56;;;;;;;4.93;2.70;;;;;;;22.52;56.71;102590.00;5019974;28;20079;-59
2022/08/10 08:54:06;;;;;;;4.07;2.50;;;;;;;22.69;56.76;102585.03;5010186;28;20501;-59
2022/08/10 08:56:45;;;;;;;7.85;2.67;;;;;;;22.77;56.24;102587.53;5009593;28;20050;-59
2022/08/10 08:59:35;;;;;;;5.50;2.60;;;;;;;22.95;56.13;102588.81;5013771;28;20017;-59
2022/08/10 09:02:22;;;;;;;4.82;2.60;;;;;;;23.03;55.34;102580.44;5008810;28;20097;-59
2022/08/10 09:05:07;;;;;;;5.82;2.60;;;;;;;23.16;54.63;102577.72;5003606;28;20177;-60
2022/08/10 09:08:02;;;;;;;5.45;2.70;;;;;;;23.39;54.92;102578.06;5008784;28;20038;-59
2022/08/10 09:11:00;;;;;;;5.15;2.70;;;;;;;23.57;52.99;102572.00;4996735;28;20506;-59
2022/08/10 09:14:00;;;;;;;6.15;2.75;;;;;;;23.74;52.07;102575.88;5006508;28;20010;-59
2022/08/10 09:16:36;;;;;;;5.53;2.72;;;;;;;23.86;51.62;102570.59;5006208;28;20032;-59
2022/08/10 09:19:21;;;;;;;5.50;2.80;;;;;;;24.00;50.26;102571.38;5008413;28;20037;-59
2022/08/10 09:21:57;;;;;;;4.35;2.80;;;;;;;24.16;50.07;102559.97;5011896;28;20057;-59
2022/08/10 09:24:43;;;;;;;6.28;2.90;;;;;;;24.33;48.83;102568.47;5006121;28;20033;-59
2022/08/10 09:27:19;;;;;;;6.32;2.75;;;;;;;24.50;48.46;102558.72;5004833;28;20429;-59
2022/08/10 09:29:53;;;;;;;4.97;2.70;;;;;;;24.77;48.59;102567.47;5012452;28;20539;-59
2022/08/10 09:32:45;;;;;;;5.20;2.90;;;;;;;24.91;48.00;102560.88;5005321;28;20030;-59
2022/08/10 09:35:26;;;;;;;5.60;2.85;;;;;;;25.08;47.45;102555.69;5007347;28;20359;-59
2022/08/10 09:37:54;;;;;;;5.25;2.60;;;;;;;25.18;46.88;102556.00;5006167;28;20014;-59
2022/08/10 09:40:28;;;;;;;3.90;2.43;;;;;;;25.38;46.74;102553.03;5007637;28;20390;-59
2022/08/10 09:43:01;;;;;;;6.53;2.70;;;;;;;25.51;46.07;102558.34;5012876;28;20708;-59
2022/08/10 09:45:51;;;;;;;8.10;2.55;;;;;;;25.60;45.34;102550.69;5007777;28;20586;-59
2022/08/10 09:48:22;;;;;;;5.15;2.85;;;;;;;25.68;45.17;102544.94;5006517;28;20021;-59
2022/08/10 09:51:13;;;;;;;4.18;2.50;;;;;;;25.83;45.45;102539.09;5008593;28;20064;-59
2022/08/10 09:53:57;;;;;;;5.60;2.75;;;;;;;25.92;44.38;102537.72;5003856;28;20872;-59
2022/08/10 09:56:48;;;;;;;8.57;2.60;;;;;;;26.03;44.09;102547.81;5009861;28;20113;-59
2022/08/10 09:59:58;;;;;;;7.65;2.80;;;;;;;26.09;43.72;102544.16;5007194;28;20101;-59
2022/08/10 10:03:00;;;;;;;6.28;2.50;;;;;;;26.27;42.89;102534.25;4944565;28;20027;-60
2022/08/10 10:05:45;;;;;;;4.85;2.35;;;;;;;26.47;43.03;102538.34;4942387;28;20043;-59
2022/08/10 10:08:22;;;;;;;6.72;2.50;;;;;;;26.64;42.56;102530.31;4999715;28;20030;-59
2022/08/10 10:11:00;;;;;;;5.55;2.42;;;;;;;26.70;41.51;102526.63;5007689;28;20021;-59
2022/08/10 10:13:50;;;;;;;6.05;2.10;;;;;;;26.82;40.93;102521.97;4999106;28;20030;-59
2022/08/10 10:16:55;;;;;;;5.00;2.50;;;;;;;26.98;40.88;102520.44;4998948;28;20087;-62
2022/08/10 10:19:26;;;;;;;7.50;2.38;;;;;;;27.08;40.60;102520.69;5005875;28;20045;-60
2022/08/10 10:22:35;;;;;;;4.82;2.30;;;;;;;27.18;40.36;102506.44;4998355;28;20052;-59
2022/08/10 10:25:16;;;;;;;3.17;2.30;;;;;;;27.27;39.19;102513.19;4979315;28;20042;-59
2022/08/10 10:28:12;;;;;;;5.65;2.40;;;;;;;27.31;38.51;102511.63;4999272;28;20117;-59
2022/08/10 10:31:26;;;;;;;3.65;2.47;;;;;;;27.42;39.20;102505.28;4993756;28;20037;-59
2022/08/10 10:34:00;;;;;;;5.47;2.50;;;;;;;27.60;38.69;102504.28;4983251;28;20045;-59
2022/08/10 10:36:28;;;;;;;4.10;3.00;;;;;;;27.65;38.50;102503.56;5007740;28;20021;-60
2022/08/10 10:38:56;;;;;;;3.55;2.30;;;;;;;27.60;38.33;102498.00;5007679;28;20109;-60
2022/08/10 10:41:21;;;;;;;;;;;;;;;27.81;38.67;102497.34;5013664;28;20034;-60
2022/08/10 10:44:21;;;;;;;5.27;2.30;;;;;;;27.96;38.67;102497.59;5008599;28;19909;-60
2022/08/10 10:47:35;;;;;;;3.25;2.30;;;;;;;27.99;37.86;102499.00;5003603;28;20037;-60
2022/08/10 10:50:45;;;;;;;5.07;2.60;;;;;;;27.98;37.36;102479.03;5010066;28;20029;-60
2022/08/10 10:53:38;;;;;;;5.22;2.20;;;;;;;28.01;37.25;102481.28;4976208;28;20512;-60
2022/08/10 10:56:15;;;;;;;7.82;2.50;;;;;;;28.19;38.23;102476.66;5004056;28;20048;-59
2022/08/10 10:59:05;;;;;;;4.82;2.25;;;;;;;28.32;38.15;102476.34;5012768;28;20032;-60
2022/08/10 11:01:46;;;;;;;6.15;2.35;;;;;;;28.55;38.34;102473.41;5004726;28;20021;-60
2022/08/10 11:04:17;;;;;;;5.68;2.20;;;;;;;28.60;37.25;102472.66;5000750;28;20041;-59
2022/08/10 11:06:51;;;;;;;3.55;2.55;;;;;;;28.68;36.91;102472.25;5011522;28;20026;-59
2022/08/10 11:09:37;;;;;;;5.15;2.40;;;;;;;28.77;36.40;102468.00;5007744;28;20746;-60
2022/08/10 11:12:16;;;;;;;7.72;2.22;;;;;;;28.93;36.73;102464.41;5008086;28;20635;-60
2022/08/10 11:15:01;;;;;;;6.00;2.60;;;;;;;28.97;36.26;102459.25;5000890;28;20041;-59
2022/08/10 11:17:37;;;;;;;6.03;2.50;;;;;;;28.95;35.21;102462.25;4991517;28;20025;-59
2022/08/10 11:20:14;;;;;;;4.20;2.55;;;;;;;28.84;34.25;102456.84;4992143;28;20042;-60
2022/08/10 11:23:10;;;;;;;4.03;2.60;;;;;;;28.85;34.41;102453.91;4995615;28;20022;-60
2022/08/10 11:25:41;;;;;;;3.47;2.30;;;;;;;28.92;35.20;102451.81;4996217;28;20030;-60
2022/08/10 11:28:27;;;;;;;5.15;2.25;;;;;;;29.00;35.37;102453.28;4996758;28;20750;-59
2022/08/10 11:31:16;;;;;;;2.88;2.25;;;;;;;29.01;34.76;102452.19;4995571;28;20040;-60
2022/08/10 11:33:52;;;;;;;6.43;2.78;;;;;;;28.99;34.52;102452.44;4994708;28;20101;-60
2022/08/10 11:36:22;;;;;;;3.65;2.33;;;;;;;29.06;34.56;102454.97;4997830;28;20926;-60
2022/08/10 11:39:09;;;;;;;5.78;2.42;;;;;;;29.13;34.70;102452.03;4999227;28;20109;-60
2022/08/10 11:41:44;;;;;;;4.97;2.63;;;;;;;29.16;35.33;102455.09;5006886;28;20514;-60
2022/08/10 11:44:19;;;;;;;6.10;2.60;;;;;;;29.07;34.52;102451.16;5008564;28;20026;-60
2022/08/10 11:47:03;;;;;;;9.75;2.40;;;;;;;29.10;34.90;102445.19;4997997;28;20196;-60
2022/08/10 11:49:44;;;;;;;3.42;2.53;;;;;;;29.16;34.81;102444.16;4997541;28;20065;-60
2022/08/10 11:52:19;;;;;;;3.78;2.60;;;;;;;29.28;35.51;102446.75;4997200;28;20487;-60
2022/08/10 11:54:54;;;;;;;5.68;2.47;;;;;;;29.35;34.72;102441.91;4999017;28;20072;-60